createdAt,value
2022-08-19T00:01:53.455Z,7.70
2022-08-19T00:04:23.804Z,10.63
2022-08-19T00:06:50.847Z,8.15
2022-08-19T00:09:19.819Z,7.43
2022-08-19T00:11:47.680Z,10.38
2022-08-19T00:14:16.612Z,7.50
2022-08-19T00:16:45.540Z,9.70
2022-08-19T00:19:12.741Z,7.65
2022-08-19T00:21:40.419Z,10.70
2022-08-19T00:24:09.807Z,6.75
2022-08-19T00:26:37.054Z,10.55
2022-08-19T00:29:05.530Z,8.88
2022-08-19T00:31:32.548Z,10.43
2022-08-19T00:34:00.184Z,8.70
2022-08-19T00:36:26.966Z,11.40
2022-08-19T00:38:54.194Z,7.60
2022-08-19T00:41:22.762Z,8.60
2022-08-19T00:44:14.705Z,8.75
2022-08-19T00:46:45.157Z,8.33
2022-08-19T00:49:38.445Z,7.50
2022-08-19T00:52:13.587Z,7.60
2022-08-19T00:54:42.301Z,6.47
2022-08-19T00:57:15.944Z,7.25
2022-08-19T00:59:56.373Z,7.47
2022-08-19T01:02:30.823Z,7.50
2022-08-19T01:04:58.089Z,7.65
2022-08-19T01:07:25.220Z,6.70
2022-08-19T01:09:53.068Z,5.75
2022-08-19T01:12:20.394Z,7.10
2022-08-19T01:14:48.566Z,8.85
2022-08-19T01:17:16.280Z,9.65
2022-08-19T01:19:44.828Z,7.53
2022-08-19T01:22:32.820Z,6.00
2022-08-19T01:25:00.709Z,7.57
2022-08-19T01:27:29.595Z,7.13
2022-08-19T01:30:14.955Z,9.00
2022-08-19T01:32:41.836Z,6.13
2022-08-19T01:35:10.199Z,6.25
2022-08-19T01:37:55.668Z,7.07
2022-08-19T01:40:24.952Z,6.30
2022-08-19T01:42:53.588Z,7.70
2022-08-19T01:45:23.102Z,5.82
2022-08-19T01:47:55.587Z,7.80
2022-08-19T01:50:29.863Z,9.63
2022-08-19T01:53:06.135Z,7.57
2022-08-19T01:55:41.137Z,8.82
2022-08-19T01:58:13.192Z,6.72
2022-08-19T02:00:40.374Z,7.32
2022-08-19T02:03:07.724Z,6.45
2022-08-19T02:05:34.505Z,6.68
2022-08-19T02:08:01.272Z,7.35
2022-08-19T02:10:28.439Z,6.45
2022-08-19T02:12:55.289Z,6.38
2022-08-19T02:15:23.251Z,9.60
2022-08-19T02:17:50.065Z,9.55
2022-08-19T02:20:17.604Z,7.47
2022-08-19T02:22:44.586Z,7.15
2022-08-19T02:25:13.705Z,7.35
2022-08-19T02:27:41.855Z,6.15
2022-08-19T02:30:14.120Z,7.75
2022-08-19T02:32:44.702Z,6.72
2022-08-19T02:35:13.910Z,6.78
2022-08-19T02:38:01.007Z,6.18
2022-08-19T02:40:29.687Z,8.27
2022-08-19T02:42:57.331Z,8.48
2022-08-19T02:45:24.276Z,8.18
2022-08-19T02:47:51.457Z,8.05
2022-08-19T02:50:18.637Z,6.25
2022-08-19T02:52:46.353Z,10.60
2022-08-19T02:55:13.108Z,8.98
2022-08-19T02:57:39.893Z,6.40
2022-08-19T03:00:10.920Z,8.88
2022-08-19T03:02:37.690Z,6.88
2022-08-19T03:05:06.008Z,5.97
2022-08-19T03:07:33.207Z,7.93
2022-08-19T03:10:00.052Z,7.20
2022-08-19T03:12:27.248Z,7.00
2022-08-19T03:14:54.121Z,6.25
2022-08-19T03:17:21.439Z,6.85
2022-08-19T03:19:48.331Z,6.40
2022-08-19T03:22:15.093Z,7.18
2022-08-19T03:24:41.947Z,7.40
2022-08-19T03:27:08.744Z,6.18
2022-08-19T03:29:43.250Z,6.53
2022-08-19T03:32:19.855Z,6.95
2022-08-19T03:34:58.934Z,7.43
2022-08-19T03:37:26.926Z,7.05
2022-08-19T03:39:53.762Z,8.40
2022-08-19T03:42:32.680Z,7.88
2022-08-19T03:45:08.396Z,8.65
2022-08-19T03:47:35.222Z,9.05
2022-08-19T03:50:02.402Z,9.02
2022-08-19T03:52:29.245Z,6.82
2022-08-19T03:54:56.329Z,8.05
2022-08-19T03:57:32.141Z,7.47
2022-08-19T04:00:12.673Z,13.50
2022-08-19T04:02:40.301Z,7.22
2022-08-19T04:05:09.102Z,9.30
2022-08-19T04:07:36.556Z,10.85
2022-08-19T04:10:04.725Z,8.48
2022-08-19T04:12:31.923Z,11.02
2022-08-19T04:14:59.363Z,9.55
2022-08-19T04:17:26.786Z,11.05
2022-08-19T04:19:53.960Z,8.82
2022-08-19T04:22:20.713Z,9.82
2022-08-19T04:24:47.471Z,10.23
2022-08-19T04:27:14.519Z,7.85
2022-08-19T04:29:42.246Z,8.07
2022-08-19T04:32:11.720Z,9.70
2022-08-19T04:35:01.153Z,9.75
2022-08-19T04:37:27.483Z,11.73
2022-08-19T04:40:17.323Z,12.45
2022-08-19T04:42:44.207Z,8.05
2022-08-19T04:45:14.325Z,11.13
2022-08-19T04:47:47.725Z,9.55
2022-08-19T04:50:25.159Z,10.90
2022-08-19T04:52:53.450Z,9.70
2022-08-19T04:55:20.855Z,10.65
2022-08-19T04:57:47.671Z,11.75
2022-08-19T05:00:14.652Z,10.23
2022-08-19T05:02:41.952Z,11.55
2022-08-19T05:05:09.282Z,16.90
2022-08-19T05:07:36.554Z,10.90
2022-08-19T05:10:06.207Z,11.77
2022-08-19T05:12:33.422Z,12.50
2022-08-19T05:15:01.269Z,12.45
2022-08-19T05:17:32.306Z,12.98
2022-08-19T05:20:20.520Z,11.75
2022-08-19T05:22:48.239Z,11.60
2022-08-19T05:25:20.018Z,9.57
2022-08-19T05:27:47.911Z,13.18
2022-08-19T05:30:15.834Z,11.63
2022-08-19T05:32:43.249Z,10.55
2022-08-19T05:35:11.525Z,11.88
2022-08-19T05:37:41.061Z,12.88
2022-08-19T05:40:09.022Z,13.20
2022-08-19T05:42:36.068Z,15.23
2022-08-19T05:45:03.288Z,12.32
2022-08-19T05:47:30.054Z,13.65
2022-08-19T05:49:57.242Z,16.50
2022-08-19T05:52:25.935Z,19.10
2022-08-19T05:54:55.585Z,22.67
2022-08-19T05:57:23.129Z,24.08
2022-08-19T05:59:53.247Z,21.48
2022-08-19T06:02:31.619Z,25.80
2022-08-19T06:04:59.060Z,23.98
2022-08-19T06:07:26.414Z,19.85
2022-08-19T06:10:01.014Z,26.85
2022-08-19T06:12:35.410Z,30.02
2022-08-19T06:15:06.515Z,33.67
2022-08-19T06:17:35.655Z,35.13
2022-08-19T06:20:04.982Z,34.08
2022-08-19T06:22:31.776Z,38.42
2022-08-19T06:24:58.683Z,41.30
2022-08-19T06:27:25.494Z,38.03
2022-08-19T06:29:52.690Z,39.30
2022-08-19T06:32:20.265Z,42.28
2022-08-19T06:34:47.472Z,40.10
2022-08-19T06:37:15.033Z,38.95
2022-08-19T06:39:44.866Z,41.75
2022-08-19T06:42:14.187Z,43.60
2022-08-19T06:44:43.777Z,52.47
2022-08-19T06:47:25.156Z,60.92
2022-08-19T06:50:02.899Z,52.90
2022-08-19T06:52:31.836Z,59.35
2022-08-19T06:55:05.872Z,58.75
2022-08-19T06:57:34.137Z,59.20
2022-08-19T07:00:01.335Z,67.18
2022-08-19T07:02:28.541Z,65.10
2022-08-19T07:04:58.814Z,65.30
2022-08-19T07:07:26.027Z,72.18
2022-08-19T07:09:59.085Z,64.38
2022-08-19T07:12:30.688Z,65.85
2022-08-19T07:14:58.878Z,70.05
2022-08-19T07:17:26.715Z,52.85
2022-08-19T07:19:54.129Z,48.55
2022-08-19T07:22:24.193Z,56.97
2022-08-19T07:24:52.413Z,56.60
2022-08-19T07:27:22.540Z,44.13
2022-08-19T07:29:54.518Z,51.25
2022-08-19T07:32:27.291Z,49.90
2022-08-19T07:34:54.224Z,50.28
2022-08-19T07:37:21.445Z,49.92
2022-08-19T07:39:48.830Z,44.07
2022-08-19T07:42:15.835Z,42.58
2022-08-19T07:44:48.283Z,40.67
2022-08-19T07:47:47.967Z,49.88
2022-08-19T07:50:08.006Z,43.13
2022-08-19T07:52:37.229Z,51.13
2022-08-19T07:55:05.672Z,41.65
2022-08-19T07:57:32.558Z,44.22
2022-08-19T08:00:00.070Z,42.85
2022-08-19T08:02:27.371Z,41.05
2022-08-19T08:05:12.639Z,43.57
2022-08-19T08:07:59.116Z,39.75
2022-08-19T08:10:26.523Z,36.78
2022-08-19T08:13:09.137Z,39.85
2022-08-19T08:15:42.627Z,33.50
2022-08-19T08:18:11.486Z,32.70
2022-08-19T08:20:38.916Z,35.90
2022-08-19T08:23:25.709Z,34.67
2022-08-19T08:25:58.010Z,36.53
2022-08-19T08:28:29.552Z,33.47
2022-08-19T08:30:57.952Z,34.80
2022-08-19T08:33:30.087Z,32.38
2022-08-19T08:36:05.190Z,35.70
2022-08-19T08:38:39.078Z,31.83
2022-08-19T08:41:28.745Z,35.50
2022-08-19T08:43:57.934Z,33.73
2022-08-19T08:46:32.696Z,31.63
2022-08-19T08:49:19.614Z,31.20
2022-08-19T08:52:01.666Z,31.23
2022-08-19T08:54:39.809Z,26.25
2022-08-19T08:57:18.743Z,27.90
2022-08-19T08:59:52.197Z,33.13
2022-08-19T09:02:19.764Z,30.15
2022-08-19T09:04:46.819Z,27.13
2022-08-19T09:07:50.994Z,31.45
2022-08-19T09:10:28.416Z,27.13
2022-08-19T09:13:23.152Z,23.98
2022-08-19T09:16:14.079Z,22.70
2022-08-19T09:18:54.278Z,24.83
2022-08-19T09:21:26.034Z,21.98
2022-08-19T09:23:59.510Z,22.83
2022-08-19T09:26:47.545Z,30.13
2022-08-19T09:29:14.763Z,24.58
2022-08-19T09:31:41.829Z,29.20
2022-08-19T09:34:09.420Z,27.55
2022-08-19T09:36:53.337Z,31.63
2022-08-19T09:39:20.273Z,29.17
2022-08-19T09:41:49.155Z,25.05
2022-08-19T09:44:16.305Z,25.50
2022-08-19T09:46:43.168Z,28.20
2022-08-19T09:49:10.228Z,30.80
2022-08-19T09:51:37.482Z,30.02
2022-08-19T09:54:05.168Z,23.73
2022-08-19T09:56:34.048Z,25.45
2022-08-19T09:59:02.510Z,25.50
2022-08-19T10:01:30.923Z,22.73
2022-08-19T10:04:00.226Z,28.25
2022-08-19T10:06:45.890Z,29.10
2022-08-19T10:09:15.432Z,34.75
2022-08-19T10:11:51.186Z,29.38
2022-08-19T10:14:23.375Z,32.57
2022-08-19T10:16:52.433Z,31.35
2022-08-19T10:19:25.463Z,32.08
2022-08-19T10:21:52.806Z,35.70
2022-08-19T10:24:21.455Z,32.28
2022-08-19T10:26:49.475Z,41.63
2022-08-19T10:29:31.835Z,40.88
2022-08-19T10:32:05.466Z,41.22
2022-08-19T10:34:48.781Z,38.08
2022-08-19T10:37:23.983Z,38.65
2022-08-19T10:39:58.696Z,39.43
2022-08-19T10:42:25.826Z,37.42
2022-08-19T10:44:52.702Z,37.88
2022-08-19T10:47:25.552Z,39.03
2022-08-19T10:50:13.275Z,37.33
2022-08-19T10:52:50.233Z,38.33
2022-08-19T10:55:40.001Z,40.53
2022-08-19T10:58:15.434Z,35.17
2022-08-19T11:00:44.246Z,38.20
2022-08-19T11:03:11.301Z,41.85
2022-08-19T11:05:40.438Z,36.73
2022-08-19T11:08:23.682Z,36.63
2022-08-19T11:10:54.604Z,39.83
2022-08-19T11:13:22.493Z,42.10
2022-08-19T11:16:23.050Z,40.08
2022-08-19T11:18:55.876Z,39.77
2022-08-19T11:21:29.649Z,39.20
2022-08-19T11:23:59.454Z,40.20
2022-08-19T11:26:27.181Z,32.25
2022-08-19T11:28:57.678Z,42.17
2022-08-19T11:31:31.694Z,34.20
2022-08-19T11:34:00.622Z,34.13
2022-08-19T11:36:28.312Z,34.08
2022-08-19T11:38:55.454Z,30.77
2022-08-19T11:41:24.331Z,34.50
2022-08-19T11:43:53.837Z,39.87
2022-08-19T11:46:20.734Z,30.50
2022-08-19T11:48:47.632Z,30.17
2022-08-19T11:51:18.237Z,33.28
2022-08-19T11:53:46.379Z,32.47
2022-08-19T11:56:13.801Z,32.73
2022-08-19T11:58:42.997Z,33.10
2022-08-19T12:01:18.166Z,35.35
2022-08-19T12:03:47.456Z,29.50
2022-08-19T12:06:17.624Z,27.13
2022-08-19T12:08:45.674Z,29.63
2022-08-19T12:11:14.661Z,26.55
2022-08-19T12:13:45.237Z,23.23
2022-08-19T12:16:15.071Z,24.23
2022-08-19T12:18:44.816Z,26.98
2022-08-19T12:21:13.169Z,22.47
2022-08-19T12:23:40.360Z,21.58
2022-08-19T12:26:07.637Z,23.02
2022-08-19T12:28:34.428Z,25.85
2022-08-19T12:31:01.189Z,20.75
2022-08-19T12:33:29.328Z,24.47
2022-08-19T12:36:02.428Z,24.25
2022-08-19T12:38:29.814Z,22.40
2022-08-19T12:41:00.133Z,20.50
2022-08-19T12:43:27.835Z,19.15
2022-08-19T12:45:54.610Z,17.27
2022-08-19T12:48:33.707Z,15.48
2022-08-19T12:51:07.448Z,18.65
2022-08-19T12:53:34.574Z,18.48
2022-08-19T12:56:06.434Z,13.50
2022-08-19T12:58:36.799Z,16.40
2022-08-19T13:01:15.236Z,11.63
2022-08-19T13:03:46.721Z,19.88
2022-08-19T13:06:14.048Z,15.88
2022-08-19T13:08:46.477Z,14.32
2022-08-19T13:11:18.422Z,18.47
2022-08-19T13:13:48.348Z,16.48
2022-08-19T13:16:15.830Z,19.52
2022-08-19T13:18:45.197Z,17.63
2022-08-19T13:21:13.958Z,19.17
2022-08-19T13:23:42.113Z,17.90
2022-08-19T13:26:12.341Z,18.70
2022-08-19T13:28:59.154Z,17.40
2022-08-19T13:31:46.963Z,21.15
2022-08-19T13:34:15.161Z,16.70
2022-08-19T13:36:42.076Z,14.57
2022-08-19T13:39:10.226Z,17.98
2022-08-19T13:41:37.980Z,14.48
2022-08-19T13:44:07.316Z,17.60
2022-08-19T13:46:34.092Z,12.10
2022-08-19T13:49:00.937Z,13.33
2022-08-19T13:51:27.991Z,14.60
2022-08-19T13:53:56.204Z,11.60
2022-08-19T13:56:26.312Z,12.30
2022-08-19T13:58:54.360Z,9.98
2022-08-19T14:01:24.397Z,12.37
2022-08-19T14:03:52.068Z,13.07
2022-08-19T14:06:19.365Z,14.00
2022-08-19T14:08:47.839Z,14.07
2022-08-19T14:11:15.025Z,12.05
2022-08-19T14:13:42.526Z,11.17
2022-08-19T14:16:11.789Z,12.27
2022-08-19T14:18:39.416Z,11.00
2022-08-19T14:21:06.558Z,10.38
2022-08-19T14:23:34.170Z,9.18
2022-08-19T14:26:15.692Z,11.17
2022-08-19T14:28:43.595Z,8.75
2022-08-19T14:31:19.380Z,10.57
2022-08-19T14:33:47.987Z,10.63
2022-08-19T14:36:15.360Z,8.70
2022-08-19T14:38:42.187Z,9.77
2022-08-19T14:41:18.359Z,8.27
2022-08-19T14:43:48.761Z,8.80
2022-08-19T14:46:18.065Z,7.18
2022-08-19T14:48:45.260Z,9.55
2022-08-19T14:51:12.184Z,7.40
2022-08-19T14:53:39.624Z,7.93
2022-08-19T14:56:11.950Z,9.00
2022-08-19T14:58:41.161Z,7.47
2022-08-19T15:01:08.552Z,8.35
2022-08-19T15:03:35.605Z,9.23
2022-08-19T15:06:04.698Z,8.93
2022-08-19T15:08:34.817Z,16.02
2022-08-19T15:11:02.896Z,9.30
2022-08-19T15:13:31.014Z,10.30
2022-08-19T15:15:58.171Z,9.30
2022-08-19T15:18:25.426Z,8.07
2022-08-19T15:20:52.241Z,9.25
2022-08-19T15:23:20.829Z,8.45
2022-08-19T15:25:47.833Z,8.32
2022-08-19T15:28:16.273Z,9.80
2022-08-19T15:30:44.493Z,8.52
2022-08-19T15:33:15.116Z,9.35
2022-08-19T15:35:43.190Z,9.32
2022-08-19T15:38:13.743Z,10.27
2022-08-19T15:40:42.066Z,12.00
2022-08-19T15:43:08.858Z,12.35
2022-08-19T15:45:35.745Z,11.30
2022-08-19T15:48:05.337Z,11.68
2022-08-19T15:50:32.566Z,10.40
2022-08-19T15:53:04.049Z,14.47
2022-08-19T15:55:34.821Z,13.35
2022-08-19T15:58:28.412Z,11.27
2022-08-19T16:01:16.340Z,11.05
2022-08-19T16:04:03.189Z,10.68
2022-08-19T16:06:31.777Z,11.97
2022-08-19T16:09:01.961Z,11.13
2022-08-19T16:11:31.838Z,10.50
2022-08-19T16:13:59.782Z,9.23
2022-08-19T16:16:33.573Z,8.40
2022-08-19T16:19:03.792Z,10.07
2022-08-19T16:21:33.347Z,10.27
2022-08-19T16:24:03.365Z,10.50
2022-08-19T16:26:31.090Z,10.38
2022-08-19T16:29:00.390Z,9.15
2022-08-19T16:31:28.079Z,8.57
2022-08-19T16:33:56.002Z,10.75
2022-08-19T16:36:25.558Z,9.82
2022-08-19T16:38:53.970Z,11.05
2022-08-19T16:41:21.736Z,10.95
2022-08-19T16:43:52.559Z,13.47
2022-08-19T16:46:22.705Z,18.83
2022-08-19T16:48:50.565Z,19.95
2022-08-19T16:51:18.642Z,17.73
2022-08-19T16:53:45.791Z,13.05
2022-08-19T16:56:13.359Z,17.83
2022-08-19T16:58:40.910Z,19.92
2022-08-19T17:01:10.442Z,16.20
2022-08-19T17:03:39.894Z,13.70
2022-08-19T17:06:20.194Z,13.80
2022-08-19T17:08:50.109Z,14.60
2022-08-19T17:11:19.100Z,17.63
2022-08-19T17:13:48.068Z,14.65
2022-08-19T17:16:19.973Z,19.58
2022-08-19T17:18:46.891Z,14.15
2022-08-19T17:21:13.729Z,11.33
2022-08-19T17:23:42.839Z,14.77
2022-08-19T17:26:17.059Z,13.07
2022-08-19T17:28:51.447Z,11.95
2022-08-19T17:31:20.949Z,13.80
2022-08-19T17:33:48.634Z,12.43
2022-08-19T17:36:23.282Z,11.20
2022-08-19T17:38:51.824Z,10.43
2022-08-19T17:41:18.880Z,12.38
2022-08-19T17:43:45.796Z,11.25
2022-08-19T17:46:20.290Z,12.73
2022-08-19T17:48:52.985Z,11.10
2022-08-19T17:51:35.941Z,13.65
2022-08-19T17:54:04.314Z,10.23
2022-08-19T17:56:31.077Z,8.55
2022-08-19T17:59:00.730Z,10.40
2022-08-19T18:01:52.780Z,6.93
2022-08-19T18:04:18.631Z,5.85
2022-08-19T18:06:52.777Z,7.57
2022-08-19T18:09:25.891Z,6.00
2022-08-19T18:11:56.646Z,5.57
2022-08-19T18:14:32.912Z,4.85
2022-08-19T18:17:09.616Z,8.93
2022-08-19T18:19:43.315Z,4.90
2022-08-19T18:22:36.823Z,6.47
2022-08-19T18:25:10.671Z,8.53
2022-08-19T18:27:37.593Z,6.22
2022-08-19T18:30:08.312Z,5.95
2022-08-19T18:32:38.410Z,7.28
2022-08-19T18:35:12.611Z,7.07
2022-08-19T18:37:40.811Z,7.30
2022-08-19T18:40:30.273Z,7.05
2022-08-19T18:43:16.152Z,7.13
2022-08-19T18:46:02.456Z,7.00
2022-08-19T18:48:48.280Z,7.88
2022-08-19T18:51:16.267Z,7.57
2022-08-19T18:53:44.587Z,7.72
2022-08-19T18:56:14.185Z,9.57
2022-08-19T18:58:42.680Z,6.32
2022-08-19T19:01:23.989Z,8.70
2022-08-19T19:03:54.280Z,6.30
2022-08-19T19:06:25.441Z,7.43
2022-08-19T19:08:54.854Z,8.32
2022-08-19T19:11:26.311Z,7.55
2022-08-19T19:13:53.883Z,9.43
2022-08-19T19:16:24.430Z,8.03
2022-08-19T19:18:52.734Z,9.65
2022-08-19T19:21:22.938Z,10.55
2022-08-19T19:23:50.372Z,7.72
2022-08-19T19:26:17.691Z,8.65
2022-08-19T19:28:47.734Z,9.30
2022-08-19T19:31:27.889Z,9.07
2022-08-19T19:33:56.228Z,8.80
2022-08-19T19:36:23.936Z,8.35
2022-08-19T19:38:51.122Z,8.68
2022-08-19T19:41:24.072Z,6.90
2022-08-19T19:44:09.828Z,6.60
2022-08-19T19:46:40.069Z,8.70
2022-08-19T19:49:07.264Z,7.53
2022-08-19T19:51:37.706Z,11.00
2022-08-19T19:54:05.997Z,8.70
2022-08-19T19:56:33.938Z,8.75
2022-08-19T19:59:03.423Z,9.27
2022-08-19T20:01:30.623Z,8.02
2022-08-19T20:04:01.416Z,8.48
2022-08-19T20:06:29.101Z,14.50
2022-08-19T20:09:10.479Z,11.50
2022-08-19T20:11:37.728Z,13.15
2022-08-19T20:14:14.481Z,7.45
2022-08-19T20:16:45.923Z,10.68
2022-08-19T20:19:15.677Z,10.10
2022-08-19T20:21:46.729Z,7.88
2022-08-19T20:24:18.470Z,8.68
2022-08-19T20:26:47.118Z,12.55
2022-08-19T20:29:39.314Z,31.55
2022-08-19T20:32:07.653Z,9.57
2022-08-19T20:34:34.964Z,9.85
2022-08-19T20:37:02.167Z,10.63
2022-08-19T20:39:29.094Z,12.55
2022-08-19T20:41:56.494Z,11.88
2022-08-19T20:44:25.261Z,13.10
2022-08-19T20:46:55.533Z,11.68
2022-08-19T20:49:27.457Z,12.15
2022-08-19T20:51:55.879Z,15.55
2022-08-19T20:54:24.170Z,13.77
2022-08-19T20:56:51.699Z,11.57
2022-08-19T20:59:20.031Z,11.88
2022-08-19T21:01:47.494Z,14.55
2022-08-19T21:04:14.497Z,16.80
2022-08-19T21:06:45.386Z,13.10
2022-08-19T21:09:13.662Z,12.57
2022-08-19T21:11:41.007Z,16.55
2022-08-19T21:14:08.348Z,11.50
2022-08-19T21:16:35.595Z,12.93
2022-08-19T21:19:02.882Z,17.63
2022-08-19T21:21:29.680Z,14.07
2022-08-19T21:23:56.613Z,14.18
2022-08-19T21:26:24.330Z,14.30
2022-08-19T21:28:51.519Z,12.98
2022-08-19T21:31:18.512Z,14.15
2022-08-19T21:33:45.353Z,14.47
2022-08-19T21:36:12.227Z,16.05
2022-08-19T21:38:39.017Z,14.55
2022-08-19T21:41:06.683Z,18.42
2022-08-19T21:43:35.712Z,18.13
2022-08-19T21:46:02.948Z,16.87
2022-08-19T21:48:29.699Z,15.05
2022-08-19T21:50:56.916Z,14.63
2022-08-19T21:53:23.665Z,16.38
2022-08-19T21:55:53.406Z,16.75
2022-08-19T21:58:28.193Z,16.10
2022-08-19T22:00:57.732Z,15.85
2022-08-19T22:03:25.801Z,15.13
2022-08-19T22:05:53.323Z,17.90
2022-08-19T22:08:20.100Z,19.25
2022-08-19T22:10:49.027Z,20.57
2022-08-19T22:13:17.359Z,18.98
2022-08-19T22:15:48.669Z,15.90
2022-08-19T22:18:19.002Z,16.77
2022-08-19T22:20:46.233Z,23.60
2022-08-19T22:23:13.320Z,18.60
2022-08-19T22:25:44.041Z,19.20
2022-08-19T22:28:12.597Z,19.98
2022-08-19T22:30:41.818Z,17.50
2022-08-19T22:33:12.388Z,18.98
2022-08-19T22:35:41.613Z,17.87
2022-08-19T22:38:10.129Z,17.25
2022-08-19T22:40:40.226Z,16.73
2022-08-19T22:43:11.981Z,17.35
2022-08-19T22:45:38.997Z,14.43
2022-08-19T22:48:08.122Z,19.80
2022-08-19T22:50:36.732Z,22.80
2022-08-19T22:53:06.178Z,22.42
2022-08-19T22:55:34.223Z,25.52
2022-08-19T22:58:01.185Z,18.00
2022-08-19T23:00:28.525Z,17.07
2022-08-19T23:02:56.611Z,20.63
2022-08-19T23:05:26.235Z,19.30
2022-08-19T23:07:54.455Z,19.92
2022-08-19T23:10:26.701Z,19.65
2022-08-19T23:12:56.675Z,18.13
2022-08-19T23:15:27.572Z,17.52
2022-08-19T23:17:56.302Z,22.08
2022-08-19T23:20:27.047Z,21.90
2022-08-19T23:22:55.081Z,17.20
2022-08-19T23:25:26.077Z,18.73
2022-08-19T23:28:11.759Z,16.98
2022-08-19T23:30:42.524Z,17.25
2022-08-19T23:33:21.487Z,18.25
2022-08-19T23:35:48.949Z,20.02
2022-08-19T23:38:15.817Z,20.23
2022-08-19T23:40:42.960Z,22.65
2022-08-19T23:43:10.244Z,16.75
2022-08-19T23:45:50.972Z,23.00
2022-08-19T23:48:18.649Z,17.35
2022-08-19T23:50:46.502Z,17.50
2022-08-19T23:53:14.031Z,21.40
2022-08-19T23:55:44.189Z,20.27
2022-08-19T23:58:11.757Z,21.77
